sensor_id;sensor_type;location;lat;lon;timestamp;temperature;humidity
65972;SHT31;52726;48.852;9.152;2023-06-01T00:01:46;13.87;62.41
65972;SHT31;52726;48.852;9.152;2023-06-01T00:04:11;13.94;62.04
65972;SHT31;52726;48.852;9.152;2023-06-01T00:06:38;13.99;61.71
65972;SHT31;52726;48.852;9.152;2023-06-01T00:09:04;14.00;62.59
65972;SHT31;52726;48.852;9.152;2023-06-01T00:11:29;14.02;62.21
65972;SHT31;52726;48.852;9.152;2023-06-01T00:13:54;13.97;62.44
65972;SHT31;52726;48.852;9.152;2023-06-01T00:16:20;14.00;62.23
65972;SHT31;52726;48.852;9.152;2023-06-01T00:18:45;13.93;62.24
65972;SHT31;52726;48.852;9.152;2023-06-01T00:21:11;13.99;62.05
65972;SHT31;52726;48.852;9.152;2023-06-01T00:23:36;13.91;63.17
65972;SHT31;52726;48.852;9.152;2023-06-01T00:26:03;13.82;63.24
65972;SHT31;52726;48.852;9.152;2023-06-01T00:28:29;13.86;63.04
65972;SHT31;52726;48.852;9.152;2023-06-01T00:30:55;13.90;63.53
65972;SHT31;52726;48.852;9.152;2023-06-01T00:33:20;13.94;63.37
65972;SHT31;52726;48.852;9.152;2023-06-01T00:35:46;13.97;62.81
65972;SHT31;52726;48.852;9.152;2023-06-01T00:38:11;13.99;63.02
65972;SHT31;52726;48.852;9.152;2023-06-01T00:40:36;13.90;63.82
65972;SHT31;52726;48.852;9.152;2023-06-01T00:43:02;13.87;63.85
65972;SHT31;52726;48.852;9.152;2023-06-01T00:45:27;13.82;64.12
65972;SHT31;52726;48.852;9.152;2023-06-01T00:47:53;13.80;63.82
65972;SHT31;52726;48.852;9.152;2023-06-01T00:50:18;13.75;64.30
65972;SHT31;52726;48.852;9.152;2023-06-01T00:52:44;13.66;64.63
65972;SHT31;52726;48.852;9.152;2023-06-01T00:55:10;13.61;64.68
65972;SHT31;52726;48.852;9.152;2023-06-01T00:57:37;13.55;65.49
65972;SHT31;52726;48.852;9.152;2023-06-01T01:00:04;13.51;65.37
65972;SHT31;52726;48.852;9.152;2023-06-01T01:02:39;13.44;65.66
65972;SHT31;52726;48.852;9.152;2023-06-01T01:05:08;13.39;66.85
65972;SHT31;52726;48.852;9.152;2023-06-01T01:13:14;13.14;67.25
65972;SHT31;52726;48.852;9.152;2023-06-01T01:18:16;13.11;67.33
65972;SHT31;52726;48.852;9.152;2023-06-01T01:20:48;13.10;67.18
65972;SHT31;52726;48.852;9.152;2023-06-01T01:31:25;12.79;68.59
65972;SHT31;52726;48.852;9.152;2023-06-01T01:33:55;12.83;68.67
65972;SHT31;52726;48.852;9.152;2023-06-01T01:36:21;12.77;68.71
65972;SHT31;52726;48.852;9.152;2023-06-01T01:38:47;12.70;68.74
65972;SHT31;52726;48.852;9.152;2023-06-01T01:41:13;12.64;69.13
65972;SHT31;52726;48.852;9.152;2023-06-01T01:43:38;12.63;69.35
65972;SHT31;52726;48.852;9.152;2023-06-01T01:46:22;12.59;69.01
65972;SHT31;52726;48.852;9.152;2023-06-01T01:49:13;12.49;70.30
65972;SHT31;52726;48.852;9.152;2023-06-01T01:51:56;12.42;70.10
65972;SHT31;52726;48.852;9.152;2023-06-01T01:54:24;12.38;69.71
65972;SHT31;52726;48.852;9.152;2023-06-01T01:56:50;12.33;69.97
65972;SHT31;52726;48.852;9.152;2023-06-01T01:59:18;12.32;69.92
65972;SHT31;52726;48.852;9.152;2023-06-01T02:01:44;12.25;69.97
65972;SHT31;52726;48.852;9.152;2023-06-01T02:04:10;12.28;70.14
65972;SHT31;52726;48.852;9.152;2023-06-01T02:06:36;12.18;70.94
65972;SHT31;52726;48.852;9.152;2023-06-01T02:09:03;12.11;70.21
65972;SHT31;52726;48.852;9.152;2023-06-01T02:11:31;12.06;71.10
65972;SHT31;52726;48.852;9.152;2023-06-01T02:13:57;11.99;71.00
65972;SHT31;52726;48.852;9.152;2023-06-01T02:16:22;11.97;71.13
65972;SHT31;52726;48.852;9.152;2023-06-01T02:18:47;11.97;70.64
65972;SHT31;52726;48.852;9.152;2023-06-01T02:21:13;11.99;71.30
65972;SHT31;52726;48.852;9.152;2023-06-01T02:23:39;11.99;71.06
65972;SHT31;52726;48.852;9.152;2023-06-01T02:26:08;11.97;71.29
65972;SHT31;52726;48.852;9.152;2023-06-01T02:28:36;11.93;71.87
65972;SHT31;52726;48.852;9.152;2023-06-01T02:31:02;11.85;71.88
65972;SHT31;52726;48.852;9.152;2023-06-01T02:33:27;11.71;72.43
65972;SHT31;52726;48.852;9.152;2023-06-01T02:35:52;11.63;72.76
65972;SHT31;52726;48.852;9.152;2023-06-01T02:38:18;11.64;72.88
65972;SHT31;52726;48.852;9.152;2023-06-01T02:40:43;11.64;72.79
65972;SHT31;52726;48.852;9.152;2023-06-01T02:43:08;11.64;72.84
65972;SHT31;52726;48.852;9.152;2023-06-01T02:45:33;11.66;72.45
65972;SHT31;52726;48.852;9.152;2023-06-01T02:47:59;11.69;72.53
65972;SHT31;52726;48.852;9.152;2023-06-01T02:50:24;11.64;73.05
65972;SHT31;52726;48.852;9.152;2023-06-01T02:52:51;11.57;73.40
65972;SHT31;52726;48.852;9.152;2023-06-01T02:55:17;11.43;73.68
65972;SHT31;52726;48.852;9.152;2023-06-01T02:57:42;11.42;73.81
65972;SHT31;52726;48.852;9.152;2023-06-01T03:00:08;11.35;73.61
65972;SHT31;52726;48.852;9.152;2023-06-01T03:02:41;11.32;73.92
65972;SHT31;52726;48.852;9.152;2023-06-01T03:05:08;11.33;74.38
65972;SHT31;52726;48.852;9.152;2023-06-01T03:07:34;11.30;74.45
65972;SHT31;52726;48.852;9.152;2023-06-01T03:09:59;11.39;73.68
65972;SHT31;52726;48.852;9.152;2023-06-01T03:12:25;11.42;74.21
65972;SHT31;52726;48.852;9.152;2023-06-01T03:14:50;11.50;74.06
65972;SHT31;52726;48.852;9.152;2023-06-01T03:17:15;11.63;73.23
65972;SHT31;52726;48.852;9.152;2023-06-01T03:19:41;11.69;73.42
65972;SHT31;52726;48.852;9.152;2023-06-01T03:22:06;11.76;73.12
65972;SHT31;52726;48.852;9.152;2023-06-01T03:24:31;11.77;73.23
65972;SHT31;52726;48.852;9.152;2023-06-01T03:26:57;11.80;73.12
65972;SHT31;52726;48.852;9.152;2023-06-01T03:29:22;11.84;72.80
65972;SHT31;52726;48.852;9.152;2023-06-01T03:31:48;11.83;72.95
65972;SHT31;52726;48.852;9.152;2023-06-01T03:34:13;11.73;72.79
65972;SHT31;52726;48.852;9.152;2023-06-01T03:36:39;11.76;72.74
65972;SHT31;52726;48.852;9.152;2023-06-01T03:39:04;11.69;73.05
65972;SHT31;52726;48.852;9.152;2023-06-01T03:41:34;11.66;73.31
65972;SHT31;52726;48.852;9.152;2023-06-01T03:44:01;11.59;74.00
65972;SHT31;52726;48.852;9.152;2023-06-01T03:46:26;11.56;74.77
65972;SHT31;52726;48.852;9.152;2023-06-01T03:48:52;11.52;75.24
65972;SHT31;52726;48.852;9.152;2023-06-01T03:51:17;11.49;75.27
65972;SHT31;52726;48.852;9.152;2023-06-01T03:53:43;11.50;74.95
65972;SHT31;52726;48.852;9.152;2023-06-01T03:56:08;11.47;75.04
65972;SHT31;52726;48.852;9.152;2023-06-01T03:58:33;11.44;75.17
65972;SHT31;52726;48.852;9.152;2023-06-01T04:00:59;11.42;75.40
65972;SHT31;52726;48.852;9.152;2023-06-01T04:03:26;11.39;75.66
65972;SHT31;52726;48.852;9.152;2023-06-01T04:05:52;11.40;75.54
65972;SHT31;52726;48.852;9.152;2023-06-01T04:08:24;11.43;76.20
65972;SHT31;52726;48.852;9.152;2023-06-01T04:10:49;11.42;76.36
65972;SHT31;52726;48.852;9.152;2023-06-01T04:13:14;11.37;76.22
65972;SHT31;52726;48.852;9.152;2023-06-01T04:15:40;11.43;75.81
65972;SHT31;52726;48.852;9.152;2023-06-01T04:18:05;11.50;76.32
65972;SHT31;52726;48.852;9.152;2023-06-01T04:20:31;11.55;75.65
65972;SHT31;52726;48.852;9.152;2023-06-01T04:22:57;11.50;75.99
65972;SHT31;52726;48.852;9.152;2023-06-01T04:25:22;11.56;75.91
65972;SHT31;52726;48.852;9.152;2023-06-01T04:27:49;11.62;76.20
65972;SHT31;52726;48.852;9.152;2023-06-01T04:30:17;11.64;75.73
65972;SHT31;52726;48.852;9.152;2023-06-01T04:32:42;11.73;74.97
65972;SHT31;52726;48.852;9.152;2023-06-01T04:35:09;11.78;75.81
65972;SHT31;52726;48.852;9.152;2023-06-01T04:37:37;11.81;75.60
65972;SHT31;52726;48.852;9.152;2023-06-01T04:40:07;11.85;76.55
65972;SHT31;52726;48.852;9.152;2023-06-01T04:42:38;11.91;76.60
65972;SHT31;52726;48.852;9.152;2023-06-01T04:45:05;11.97;76.65
65972;SHT31;52726;48.852;9.152;2023-06-01T04:47:33;12.06;76.86
65972;SHT31;52726;48.852;9.152;2023-06-01T04:50:06;12.17;76.75
65972;SHT31;52726;48.852;9.152;2023-06-01T04:52:33;12.26;76.46
65972;SHT31;52726;48.852;9.152;2023-06-01T04:54:58;12.39;75.96
65972;SHT31;52726;48.852;9.152;2023-06-01T04:57:24;12.60;74.26
65972;SHT31;52726;48.852;9.152;2023-06-01T04:59:50;12.77;73.38
65972;SHT31;52726;48.852;9.152;2023-06-01T05:02:17;12.89;73.48
65972;SHT31;52726;48.852;9.152;2023-06-01T05:04:42;12.98;73.30
65972;SHT31;52726;48.852;9.152;2023-06-01T05:07:07;13.07;72.83
65972;SHT31;52726;48.852;9.152;2023-06-01T05:09:33;13.11;73.07
65972;SHT31;52726;48.852;9.152;2023-06-01T05:11:58;13.19;72.18
65972;SHT31;52726;48.852;9.152;2023-06-01T05:14:23;13.27;71.98
65972;SHT31;52726;48.852;9.152;2023-06-01T05:16:49;13.35;71.87
65972;SHT31;52726;48.852;9.152;2023-06-01T05:19:14;13.48;71.31
65972;SHT31;52726;48.852;9.152;2023-06-01T05:21:42;13.52;71.62
65972;SHT31;52726;48.852;9.152;2023-06-01T05:24:07;13.54;71.53
65972;SHT31;52726;48.852;9.152;2023-06-01T05:26:33;13.62;71.16
65972;SHT31;52726;48.852;9.152;2023-06-01T05:28:58;13.69;70.66
65972;SHT31;52726;48.852;9.152;2023-06-01T05:31:23;13.73;70.53
65972;SHT31;52726;48.852;9.152;2023-06-01T05:33:49;13.76;71.10
65972;SHT31;52726;48.852;9.152;2023-06-01T05:36:16;13.83;71.50
65972;SHT31;52726;48.852;9.152;2023-06-01T05:38:41;13.89;70.89
65972;SHT31;52726;48.852;9.152;2023-06-01T05:41:06;13.99;70.45
65972;SHT31;52726;48.852;9.152;2023-06-01T05:43:35;14.13;70.60
65972;SHT31;52726;48.852;9.152;2023-06-01T05:46:00;14.20;70.95
65972;SHT31;52726;48.852;9.152;2023-06-01T05:48:25;14.28;70.54
65972;SHT31;52726;48.852;9.152;2023-06-01T05:50:51;14.35;70.86
65972;SHT31;52726;48.852;9.152;2023-06-01T05:53:16;14.45;70.36
65972;SHT31;52726;48.852;9.152;2023-06-01T05:55:41;14.55;70.14
65972;SHT31;52726;48.852;9.152;2023-06-01T05:58:07;14.68;70.81
65972;SHT31;52726;48.852;9.152;2023-06-01T06:00:33;14.80;69.70
65972;SHT31;52726;48.852;9.152;2023-06-01T06:03:00;14.97;69.33
65972;SHT31;52726;48.852;9.152;2023-06-01T06:05:26;15.13;69.27
65972;SHT31;52726;48.852;9.152;2023-06-01T06:07:51;15.31;68.55
65972;SHT31;52726;48.852;9.152;2023-06-01T06:10:16;15.43;67.67
65972;SHT31;52726;48.852;9.152;2023-06-01T06:12:42;15.58;67.22
65972;SHT31;52726;48.852;9.152;2023-06-01T06:15:07;15.83;67.14
65972;SHT31;52726;48.852;9.152;2023-06-01T06:17:33;15.99;66.53
65972;SHT31;52726;48.852;9.152;2023-06-01T06:19:58;16.16;66.17
65972;SHT31;52726;48.852;9.152;2023-06-01T06:22:24;16.43;65.53
65972;SHT31;52726;48.852;9.152;2023-06-01T06:24:50;16.56;65.33
65972;SHT31;52726;48.852;9.152;2023-06-01T06:27:15;16.65;64.92
65972;SHT31;52726;48.852;9.152;2023-06-01T06:29:41;16.88;64.25
65972;SHT31;52726;48.852;9.152;2023-06-01T06:32:06;17.63;61.82
65972;SHT31;52726;48.852;9.152;2023-06-01T06:34:32;18.49;58.40
65972;SHT31;52726;48.852;9.152;2023-06-01T06:37:03;19.32;57.17
65972;SHT31;52726;48.852;9.152;2023-06-01T06:39:28;19.98;56.59
65972;SHT31;52726;48.852;9.152;2023-06-01T06:41:53;20.41;53.42
65972;SHT31;52726;48.852;9.152;2023-06-01T06:44:19;20.89;51.49
65972;SHT31;52726;48.852;9.152;2023-06-01T06:46:44;20.97;49.31
65972;SHT31;52726;48.852;9.152;2023-06-01T06:49:10;21.03;48.51
65972;SHT31;52726;48.852;9.152;2023-06-01T06:51:37;21.35;47.51
65972;SHT31;52726;48.852;9.152;2023-06-01T06:54:02;21.62;46.36
65972;SHT31;52726;48.852;9.152;2023-06-01T06:56:30;22.10;46.98
65972;SHT31;52726;48.852;9.152;2023-06-01T06:58:56;22.32;44.90
65972;SHT31;52726;48.852;9.152;2023-06-01T07:01:21;22.54;45.17
65972;SHT31;52726;48.852;9.152;2023-06-01T07:03:46;23.05;44.48
65972;SHT31;52726;48.852;9.152;2023-06-01T07:06:12;23.32;42.98
65972;SHT31;52726;48.852;9.152;2023-06-01T07:08:37;23.20;42.67
65972;SHT31;52726;48.852;9.152;2023-06-01T07:11:04;23.75;43.47
65972;SHT31;52726;48.852;9.152;2023-06-01T07:13:30;23.46;43.49
65972;SHT31;52726;48.852;9.152;2023-06-01T07:15:55;23.82;43.72
65972;SHT31;52726;48.852;9.152;2023-06-01T07:18:21;24.39;42.36
65972;SHT31;52726;48.852;9.152;2023-06-01T07:20:46;23.73;40.98
65972;SHT31;52726;48.852;9.152;2023-06-01T07:23:11;24.04;41.88
65972;SHT31;52726;48.852;9.152;2023-06-01T07:25:41;24.43;42.68
65972;SHT31;52726;48.852;9.152;2023-06-01T07:28:06;24.53;42.07
65972;SHT31;52726;48.852;9.152;2023-06-01T07:30:34;24.15;43.02
65972;SHT31;52726;48.852;9.152;2023-06-01T07:33:00;24.48;41.97
65972;SHT31;52726;48.852;9.152;2023-06-01T07:35:26;24.72;40.68
65972;SHT31;52726;48.852;9.152;2023-06-01T07:37:52;24.66;40.39
65972;SHT31;52726;48.852;9.152;2023-06-01T07:40:17;24.83;41.57
65972;SHT31;52726;48.852;9.152;2023-06-01T07:42:43;24.52;40.78
65972;SHT31;52726;48.852;9.152;2023-06-01T07:45:08;24.63;41.23
65972;SHT31;52726;48.852;9.152;2023-06-01T07:47:34;24.79;42.12
65972;SHT31;52726;48.852;9.152;2023-06-01T07:50:00;24.45;40.97
65972;SHT31;52726;48.852;9.152;2023-06-01T07:52:25;25.29;40.49
65972;SHT31;52726;48.852;9.152;2023-06-01T07:54:50;25.34;41.28
65972;SHT31;52726;48.852;9.152;2023-06-01T07:57:17;25.06;40.38
65972;SHT31;52726;48.852;9.152;2023-06-01T07:59:42;24.83;42.66
65972;SHT31;52726;48.852;9.152;2023-06-01T08:08:26;25.27;38.26
65972;SHT31;52726;48.852;9.152;2023-06-01T08:10:52;25.45;40.22
65972;SHT31;52726;48.852;9.152;2023-06-01T08:13:17;25.66;40.11
65972;SHT31;52726;48.852;9.152;2023-06-01T08:15:46;25.73;39.44
65972;SHT31;52726;48.852;9.152;2023-06-01T08:18:15;26.12;39.20
65972;SHT31;52726;48.852;9.152;2023-06-01T08:20:40;26.03;38.91
65972;SHT31;52726;48.852;9.152;2023-06-01T08:23:07;25.82;39.37
65972;SHT31;52726;48.852;9.152;2023-06-01T08:25:32;26.47;38.73
65972;SHT31;52726;48.852;9.152;2023-06-01T08:27:58;26.42;39.63
65972;SHT31;52726;48.852;9.152;2023-06-01T08:30:25;26.34;37.56
65972;SHT31;52726;48.852;9.152;2023-06-01T08:32:50;26.40;37.51
65972;SHT31;52726;48.852;9.152;2023-06-01T08:35:16;26.85;37.12
65972;SHT31;52726;48.852;9.152;2023-06-01T08:37:41;26.72;36.96
65972;SHT31;52726;48.852;9.152;2023-06-01T08:40:07;26.35;38.31
65972;SHT31;52726;48.852;9.152;2023-06-01T08:45:06;26.18;37.41
65972;SHT31;52726;48.852;9.152;2023-06-01T08:47:32;26.49;37.58
65972;SHT31;52726;48.852;9.152;2023-06-01T08:49:58;26.67;37.99
65972;SHT31;52726;48.852;9.152;2023-06-01T08:52:25;27.02;38.29
65972;SHT31;52726;48.852;9.152;2023-06-01T08:54:54;27.00;36.80
65972;SHT31;52726;48.852;9.152;2023-06-01T08:57:19;25.96;36.95
65972;SHT31;52726;48.852;9.152;2023-06-01T08:59:45;26.49;38.62
65972;SHT31;52726;48.852;9.152;2023-06-01T09:02:11;26.21;37.44
65972;SHT31;52726;48.852;9.152;2023-06-01T09:04:36;26.20;39.30
65972;SHT31;52726;48.852;9.152;2023-06-01T09:07:10;26.42;36.75
65972;SHT31;52726;48.852;9.152;2023-06-01T09:09:36;26.25;37.33
65972;SHT31;52726;48.852;9.152;2023-06-01T09:12:20;27.04;36.59
65972;SHT31;52726;48.852;9.152;2023-06-01T09:14:46;27.48;37.22
65972;SHT31;52726;48.852;9.152;2023-06-01T09:17:21;27.44;37.49
65972;SHT31;52726;48.852;9.152;2023-06-01T09:19:47;27.43;37.12
65972;SHT31;52726;48.852;9.152;2023-06-01T09:22:12;27.74;36.10
65972;SHT31;52726;48.852;9.152;2023-06-01T09:24:39;27.30;36.67
65972;SHT31;52726;48.852;9.152;2023-06-01T09:27:06;26.99;37.89
65972;SHT31;52726;48.852;9.152;2023-06-01T09:29:32;26.89;36.77
65972;SHT31;52726;48.852;9.152;2023-06-01T09:31:59;26.69;37.07
65972;SHT31;52726;48.852;9.152;2023-06-01T09:34:25;27.41;37.38
65972;SHT31;52726;48.852;9.152;2023-06-01T09:36:52;27.72;37.32
65972;SHT31;52726;48.852;9.152;2023-06-01T09:39:20;28.29;35.21
65972;SHT31;52726;48.852;9.152;2023-06-01T09:41:56;28.13;35.62
65972;SHT31;52726;48.852;9.152;2023-06-01T09:44:31;28.09;37.53
65972;SHT31;52726;48.852;9.152;2023-06-01T09:49:37;27.65;36.96
65972;SHT31;52726;48.852;9.152;2023-06-01T09:54:30;27.50;37.27
65972;SHT31;52726;48.852;9.152;2023-06-01T09:57:00;27.81;35.98
65972;SHT31;52726;48.852;9.152;2023-06-01T09:59:27;27.93;35.61
65972;SHT31;52726;48.852;9.152;2023-06-01T10:01:55;27.95;35.05
65972;SHT31;52726;48.852;9.152;2023-06-01T10:04:22;27.82;36.24
65972;SHT31;52726;48.852;9.152;2023-06-01T10:06:49;27.55;38.01
65972;SHT31;52726;48.852;9.152;2023-06-01T10:09:17;27.31;37.52
65972;SHT31;52726;48.852;9.152;2023-06-01T10:11:45;27.03;38.06
65972;SHT31;52726;48.852;9.152;2023-06-01T10:14:11;27.77;36.16
65972;SHT31;52726;48.852;9.152;2023-06-01T10:16:36;27.86;35.45
65972;SHT31;52726;48.852;9.152;2023-06-01T10:19:02;28.53;36.80
65972;SHT31;52726;48.852;9.152;2023-06-01T10:21:28;28.22;37.53
65972;SHT31;52726;48.852;9.152;2023-06-01T10:23:54;27.93;38.00
65972;SHT31;52726;48.852;9.152;2023-06-01T10:26:20;27.26;38.05
65972;SHT31;52726;48.852;9.152;2023-06-01T10:28:47;27.37;39.40
65972;SHT31;52726;48.852;9.152;2023-06-01T10:34:01;27.65;35.88
65972;SHT31;52726;48.852;9.152;2023-06-01T10:39:27;28.27;35.78
65972;SHT31;52726;48.852;9.152;2023-06-01T10:41:55;28.61;35.07
65972;SHT31;52726;48.852;9.152;2023-06-01T10:47:49;28.79;33.13
65972;SHT31;52726;48.852;9.152;2023-06-01T10:52:35;28.56;35.43
65972;SHT31;52726;48.852;9.152;2023-06-01T10:57:32;27.77;36.05
65972;SHT31;52726;48.852;9.152;2023-06-01T11:00:25;27.95;34.61
65972;SHT31;52726;48.852;9.152;2023-06-01T11:03:04;28.23;32.47
65972;SHT31;52726;48.852;9.152;2023-06-01T11:05:37;28.32;33.00
65972;SHT31;52726;48.852;9.152;2023-06-01T11:10:58;28.54;33.58
65972;SHT31;52726;48.852;9.152;2023-06-01T11:18:42;28.37;32.04
65972;SHT31;52726;48.852;9.152;2023-06-01T11:21:12;27.91;34.88
65972;SHT31;52726;48.852;9.152;2023-06-01T11:23:40;27.88;34.58
65972;SHT31;52726;48.852;9.152;2023-06-01T11:26:06;28.02;34.63
65972;SHT31;52726;48.852;9.152;2023-06-01T11:28:33;27.99;34.37
65972;SHT31;52726;48.852;9.152;2023-06-01T11:31:00;27.96;34.02
65972;SHT31;52726;48.852;9.152;2023-06-01T11:33:28;28.06;34.82
65972;SHT31;52726;48.852;9.152;2023-06-01T11:36:01;28.40;34.64
65972;SHT31;52726;48.852;9.152;2023-06-01T11:38:39;28.22;33.76
65972;SHT31;52726;48.852;9.152;2023-06-01T11:41:05;28.02;31.07
65972;SHT31;52726;48.852;9.152;2023-06-01T11:43:32;28.50;32.77
65972;SHT31;52726;48.852;9.152;2023-06-01T11:46:05;28.78;31.18
65972;SHT31;52726;48.852;9.152;2023-06-01T11:48:32;28.87;31.06
65972;SHT31;52726;48.852;9.152;2023-06-01T11:50:57;28.23;31.49
65972;SHT31;52726;48.852;9.152;2023-06-01T11:53:26;27.91;31.49
65972;SHT31;52726;48.852;9.152;2023-06-01T11:55:56;27.50;34.00
65972;SHT31;52726;48.852;9.152;2023-06-01T11:58:26;28.13;33.80
65972;SHT31;52726;48.852;9.152;2023-06-01T12:00:56;28.16;38.37
65972;SHT31;52726;48.852;9.152;2023-06-01T12:03:23;28.32;37.87
65972;SHT31;52726;48.852;9.152;2023-06-01T12:05:52;27.68;37.18
65972;SHT31;52726;48.852;9.152;2023-06-01T12:08:20;28.02;37.70
65972;SHT31;52726;48.852;9.152;2023-06-01T12:10:46;27.84;38.46
65972;SHT31;52726;48.852;9.152;2023-06-01T12:13:13;27.89;38.07
65972;SHT31;52726;48.852;9.152;2023-06-01T12:15:39;27.55;37.09
65972;SHT31;52726;48.852;9.152;2023-06-01T12:18:04;27.96;37.71
65972;SHT31;52726;48.852;9.152;2023-06-01T12:23:02;28.22;34.97
65972;SHT31;52726;48.852;9.152;2023-06-01T12:25:31;27.86;36.83
65972;SHT31;52726;48.852;9.152;2023-06-01T12:28:03;27.86;36.87
65972;SHT31;52726;48.852;9.152;2023-06-01T12:30:28;28.26;35.65
65972;SHT31;52726;48.852;9.152;2023-06-01T12:32:54;28.32;36.30
65972;SHT31;52726;48.852;9.152;2023-06-01T12:35:20;28.24;36.38
65972;SHT31;52726;48.852;9.152;2023-06-01T12:38:09;28.10;37.09
65972;SHT31;52726;48.852;9.152;2023-06-01T12:40:36;27.85;37.37
65972;SHT31;52726;48.852;9.152;2023-06-01T12:43:03;27.53;36.72
65972;SHT31;52726;48.852;9.152;2023-06-01T12:45:37;27.57;39.86
65972;SHT31;52726;48.852;9.152;2023-06-01T12:48:03;27.86;37.63
65972;SHT31;52726;48.852;9.152;2023-06-01T12:50:29;27.71;36.54
65972;SHT31;52726;48.852;9.152;2023-06-01T12:52:54;27.85;35.99
65972;SHT31;52726;48.852;9.152;2023-06-01T12:55:19;27.89;36.19
65972;SHT31;52726;48.852;9.152;2023-06-01T12:57:51;28.06;38.43
65972;SHT31;52726;48.852;9.152;2023-06-01T13:00:18;28.10;34.98
65972;SHT31;52726;48.852;9.152;2023-06-01T13:02:44;28.26;35.05
65972;SHT31;52726;48.852;9.152;2023-06-01T13:05:13;27.59;35.22
65972;SHT31;52726;48.852;9.152;2023-06-01T13:07:40;28.01;38.62
65972;SHT31;52726;48.852;9.152;2023-06-01T13:10:05;27.86;35.10
65972;SHT31;52726;48.852;9.152;2023-06-01T13:12:31;28.05;36.36
65972;SHT31;52726;48.852;9.152;2023-06-01T13:14:56;28.05;34.55
65972;SHT31;52726;48.852;9.152;2023-06-01T13:17:22;27.45;34.46
65972;SHT31;52726;48.852;9.152;2023-06-01T13:19:47;27.38;36.04
65972;SHT31;52726;48.852;9.152;2023-06-01T13:22:13;27.65;34.86
65972;SHT31;52726;48.852;9.152;2023-06-01T13:24:39;27.30;35.48
65972;SHT31;52726;48.852;9.152;2023-06-01T13:27:05;27.65;34.94
65972;SHT31;52726;48.852;9.152;2023-06-01T13:29:30;27.77;34.44
65972;SHT31;52726;48.852;9.152;2023-06-01T13:31:56;27.88;33.07
65972;SHT31;52726;48.852;9.152;2023-06-01T13:34:21;27.34;34.04
65972;SHT31;52726;48.852;9.152;2023-06-01T13:36:48;27.48;36.70
65972;SHT31;52726;48.852;9.152;2023-06-01T13:39:14;27.31;34.48
65972;SHT31;52726;48.852;9.152;2023-06-01T13:41:39;27.47;35.32
65972;SHT31;52726;48.852;9.152;2023-06-01T13:44:05;27.71;34.96
65972;SHT31;52726;48.852;9.152;2023-06-01T13:46:31;27.91;34.03
65972;SHT31;52726;48.852;9.152;2023-06-01T13:48:57;28.06;33.67
65972;SHT31;52726;48.852;9.152;2023-06-01T13:51:23;27.78;32.83
65972;SHT31;52726;48.852;9.152;2023-06-01T13:53:48;27.50;32.92
65972;SHT31;52726;48.852;9.152;2023-06-01T13:56:13;27.33;34.35
65972;SHT31;52726;48.852;9.152;2023-06-01T13:58:39;27.68;35.21
65972;SHT31;52726;48.852;9.152;2023-06-01T14:01:04;27.96;33.90
65972;SHT31;52726;48.852;9.152;2023-06-01T14:03:30;28.12;34.67
65972;SHT31;52726;48.852;9.152;2023-06-01T14:05:55;27.82;33.41
65972;SHT31;52726;48.852;9.152;2023-06-01T14:08:21;27.38;32.21
65972;SHT31;52726;48.852;9.152;2023-06-01T14:10:46;27.40;32.57
65972;SHT31;52726;48.852;9.152;2023-06-01T14:13:11;27.95;35.20
65972;SHT31;52726;48.852;9.152;2023-06-01T14:15:37;28.16;33.78
65972;SHT31;52726;48.852;9.152;2023-06-01T14:18:02;28.16;33.98
65972;SHT31;52726;48.852;9.152;2023-06-01T14:20:28;28.30;35.42
65972;SHT31;52726;48.852;9.152;2023-06-01T14:22:53;28.32;32.57
65972;SHT31;52726;48.852;9.152;2023-06-01T14:25:18;28.06;32.68
65972;SHT31;52726;48.852;9.152;2023-06-01T14:27:45;27.93;33.31
65972;SHT31;52726;48.852;9.152;2023-06-01T14:30:11;28.32;33.99
65972;SHT31;52726;48.852;9.152;2023-06-01T14:32:36;28.02;32.65
65972;SHT31;52726;48.852;9.152;2023-06-01T14:35:01;28.02;33.05
65972;SHT31;52726;48.852;9.152;2023-06-01T14:37:27;28.13;33.28
65972;SHT31;52726;48.852;9.152;2023-06-01T14:39:52;27.96;32.28
65972;SHT31;52726;48.852;9.152;2023-06-01T14:42:18;27.96;32.69
65972;SHT31;52726;48.852;9.152;2023-06-01T14:44:43;27.89;35.08
65972;SHT31;52726;48.852;9.152;2023-06-01T14:47:08;28.27;32.44
65972;SHT31;52726;48.852;9.152;2023-06-01T14:49:37;28.50;31.25
65972;SHT31;52726;48.852;9.152;2023-06-01T14:52:02;28.33;32.43
65972;SHT31;52726;48.852;9.152;2023-06-01T14:54:27;28.06;36.39
65972;SHT31;52726;48.852;9.152;2023-06-01T14:56:53;28.44;33.49
65972;SHT31;52726;48.852;9.152;2023-06-01T14:59:18;28.61;32.06
65972;SHT31;52726;48.852;9.152;2023-06-01T15:01:44;28.33;32.58
65972;SHT31;52726;48.852;9.152;2023-06-01T15:04:09;28.26;32.50
65972;SHT31;52726;48.852;9.152;2023-06-01T15:06:34;28.32;32.78
65972;SHT31;52726;48.852;9.152;2023-06-01T15:09:02;28.68;34.83
65972;SHT31;52726;48.852;9.152;2023-06-01T15:11:27;28.49;34.04
65972;SHT31;52726;48.852;9.152;2023-06-01T15:13:53;28.43;32.53
65972;SHT31;52726;48.852;9.152;2023-06-01T15:16:18;28.40;32.73
65972;SHT31;52726;48.852;9.152;2023-06-01T15:18:44;28.33;33.29
65972;SHT31;52726;48.852;9.152;2023-06-01T15:21:09;28.43;32.18
65972;SHT31;52726;48.852;9.152;2023-06-01T15:23:34;27.72;32.07
65972;SHT31;52726;48.852;9.152;2023-06-01T15:26:00;28.03;34.46
65972;SHT31;52726;48.852;9.152;2023-06-01T15:28:25;28.16;32.52
65972;SHT31;52726;48.852;9.152;2023-06-01T15:30:51;28.27;33.97
65972;SHT31;52726;48.852;9.152;2023-06-01T15:33:16;28.17;31.71
65972;SHT31;52726;48.852;9.152;2023-06-01T15:35:41;28.40;34.34
65972;SHT31;52726;48.852;9.152;2023-06-01T15:38:07;28.39;32.02
65972;SHT31;52726;48.852;9.152;2023-06-01T15:40:32;28.50;31.97
65972;SHT31;52726;48.852;9.152;2023-06-01T15:42:58;28.29;31.57
65972;SHT31;52726;48.852;9.152;2023-06-01T15:45:23;28.53;34.18
65972;SHT31;52726;48.852;9.152;2023-06-01T15:47:49;28.17;31.13
65972;SHT31;52726;48.852;9.152;2023-06-01T15:50:14;28.37;32.71
65972;SHT31;52726;48.852;9.152;2023-06-01T15:52:39;28.24;31.52
65972;SHT31;52726;48.852;9.152;2023-06-01T15:55:05;28.30;33.85
65972;SHT31;52726;48.852;9.152;2023-06-01T15:57:31;28.51;33.02
65972;SHT31;52726;48.852;9.152;2023-06-01T15:59:57;28.32;31.89
65972;SHT31;52726;48.852;9.152;2023-06-01T16:02:22;28.43;31.99
65972;SHT31;52726;48.852;9.152;2023-06-01T16:04:47;28.32;31.85
65972;SHT31;52726;48.852;9.152;2023-06-01T16:07:12;27.89;30.83
65972;SHT31;52726;48.852;9.152;2023-06-01T16:09:38;27.78;31.89
65972;SHT31;52726;48.852;9.152;2023-06-01T16:12:04;27.92;32.24
65972;SHT31;52726;48.852;9.152;2023-06-01T16:14:29;28.12;32.35
65972;SHT31;52726;48.852;9.152;2023-06-01T16:16:54;27.82;33.63
65972;SHT31;52726;48.852;9.152;2023-06-01T16:19:20;27.80;31.24
65972;SHT31;52726;48.852;9.152;2023-06-01T16:21:45;27.48;31.63